Time;durP1;ratioP1;P1;durP2;ratioP2;P2;SDS_P1;SDS_P2;PMS_P1;PMS_P2;Temp;Humidity;BMP_temperature;BMP_pressure;BME280_temperature;BME280_humidity;BME280_pressure;Samples;Min_cycle;Max_cycle;Signal;HPM_P1;HPM_P2
2023/01/02 00:02:26;;;;;;;;;4.50;4.00;;;;;15.89;68.20;100846.78;4962848;28;45631;-80
2023/01/02 00:04:52;;;;;;;;;4.50;4.00;;;;;15.89;68.37;100837.84;4960814;28;45587;-82
2023/01/02 00:07:18;;;;;;;;;7.00;5.75;;;;;15.99;68.39;100862.44;4967143;28;47374;-82
2023/01/02 00:09:43;;;;;;;;;5.00;5.00;;;;;15.99;68.40;100868.72;4961583;28;45320;-81
2023/01/02 00:12:08;;;;;;;;;5.75;4.00;;;;;15.96;68.34;100865.31;4961993;28;46338;-81
2023/01/02 00:14:34;;;;;;;;;3.75;3.75;;;;;15.96;68.36;100866.19;4969983;28;45309;-82
2023/01/02 00:16:59;;;;;;;;;5.50;4.00;;;;;15.97;68.55;100875.13;4945212;28;47135;-78
2023/01/02 00:19:24;;;;;;;;;3.50;3.00;;;;;15.97;68.47;100875.13;4955505;28;45508;-78
2023/01/02 00:21:50;;;;;;;;;1.25;1.25;;;;;15.89;68.70;100872.84;4963008;28;45560;-78
2023/01/02 00:24:15;;;;;;;;;3.00;1.50;;;;;15.91;68.79;100887.09;4965164;28;45373;-78
2023/01/02 00:26:40;;;;;;;;;3.50;3.50;;;;;15.88;68.97;100892.63;4946434;28;46003;-78
2023/01/02 00:29:06;;;;;;;;;4.00;3.00;;;;;15.83;69.08;100881.22;4944796;28;45191;-78
2023/01/02 00:31:31;;;;;;;;;4.25;4.25;;;;;15.88;69.21;100888.09;4957804;28;45258;-77
2023/01/02 00:33:56;;;;;;;;;4.50;3.00;;;;;15.88;69.24;100892.63;4963816;28;45302;-77
2023/01/02 00:36:22;;;;;;;;;3.00;2.25;;;;;15.89;69.56;100884.47;4965827;28;47383;-77
2023/01/02 00:38:47;;;;;;;;;3.00;3.00;;;;;15.78;69.76;100868.00;4972340;28;45258;-77
2023/01/02 00:41:12;;;;;;;;;3.75;3.00;;;;;15.87;69.63;100875.63;4967271;28;45798;-77
2023/01/02 00:43:38;;;;;;;;;5.00;4.00;;;;;15.86;69.52;100890.00;4970092;28;45323;-77
2023/01/02 00:46:04;;;;;;;;;4.00;3.00;;;;;15.81;70.09;100875.94;4967196;28;45207;-77
2023/01/02 00:48:30;;;;;;;;;2.75;2.75;;;;;15.79;69.92;100882.34;4968620;28;45507;-77
2023/01/02 00:50:55;;;;;;;;;6.00;3.75;;;;;15.77;70.30;100871.66;4965894;28;45237;-77
2023/01/02 00:53:21;;;;;;;;;3.00;2.75;;;;;15.66;70.25;100853.34;4965710;28;45219;-77
2023/01/02 00:55:47;;;;;;;;;3.75;3.00;;;;;15.74;70.10;100866.41;4965630;28;45526;-77
2023/01/02 00:58:12;;;;;;;;;3.00;2.00;;;;;15.79;70.19;100882.34;4977051;28;45455;-77
2023/01/02 01:00:38;;;;;;;;;3.00;3.00;;;;;15.84;70.47;100881.16;4966852;28;45294;-77
2023/01/02 01:03:04;;;;;;;;;4.75;4.75;;;;;15.86;70.53;100873.84;4963673;28;45493;-77
2023/01/02 01:05:29;;;;;;;;;3.25;3.25;;;;;15.69;70.62;100863.94;4971328;28;45256;-77
2023/01/02 01:07:55;;;;;;;;;3.00;3.00;;;;;15.77;70.52;100881.53;4952563;28;45645;-77
2023/01/02 01:10:23;;;;;;;;;3.50;3.50;;;;;15.80;70.85;100884.94;4967324;28;45273;-77
2023/01/02 01:12:48;;;;;;;;;3.50;2.50;;;;;15.77;70.94;100878.84;4975515;28;44736;-77
2023/01/02 01:15:13;;;;;;;;;4.00;3.25;;;;;15.76;70.80;100869.91;4966774;28;45340;-77
2023/01/02 01:17:39;;;;;;;;;3.75;3.75;;;;;15.78;71.25;100883.28;4966958;28;45301;-78
2023/01/02 01:20:05;;;;;;;;;4.25;3.50;;;;;15.74;71.11;100877.16;4952705;28;45200;-78
2023/01/02 01:22:30;;;;;;;;;1.50;1.00;;;;;15.67;70.84;100876.63;4946762;28;45615;-78
2023/01/02 01:24:56;;;;;;;;;4.00;3.50;;;;;15.69;71.20;100876.53;4958096;28;46037;-78
2023/01/02 01:27:21;;;;;;;;;4.00;4.00;;;;;15.67;70.90;100879.31;4951115;28;45404;-78
2023/01/02 01:29:46;;;;;;;;;5.75;4.75;;;;;15.73;71.19;100891.56;4945183;28;45376;-78
2023/01/02 01:32:12;;;;;;;;;2.50;2.50;;;;;15.70;71.20;100891.72;4944180;28;45575;-77
2023/01/02 01:34:37;;;;;;;;;3.00;2.50;;;;;15.74;71.32;100896.00;4935710;28;46092;-77
2023/01/02 01:37:02;;;;;;;;;3.00;3.00;;;;;15.72;71.52;100895.22;4938003;28;45370;-77
2023/01/02 01:39:28;;;;;;;;;2.25;2.25;;;;;15.69;71.63;100887.31;4945115;28;45444;-77
2023/01/02 01:41:53;;;;;;;;;4.25;3.00;;;;;15.68;71.59;100886.41;4921961;28;46127;-77
2023/01/02 01:44:37;;;;;;;;;3.25;3.00;;;;;15.68;71.89;100889.09;4945835;28;45222;-77
2023/01/02 01:47:03;;;;;;;;;2.00;2.00;;;;;15.61;71.79;100881.44;4947030;28;45328;-77
2023/01/02 01:49:29;;;;;;;;;5.00;3.25;;;;;15.65;71.82;100888.41;4947881;28;45309;-77
2023/01/02 01:52:00;;;;;;;;;2.00;2.00;;;;;15.69;71.97;100904.31;4937497;28;45337;-77
2023/01/02 01:54:36;;;;;;;;;2.00;2.00;;;;;15.63;71.79;100895.69;4944469;28;45539;-77
2023/01/02 01:57:07;;;;;;;;;4.00;4.00;;;;;15.58;71.92;100906.66;4944656;28;45575;-77
2023/01/02 01:59:34;;;;;;;;;2.75;2.25;;;;;15.64;72.06;100921.66;4944588;28;45486;-77
2023/01/02 02:01:59;;;;;;;;;1.75;1.75;;;;;15.64;72.06;100933.28;4946819;28;45345;-77
2023/01/02 02:04:25;;;;;;;;;2.00;2.00;;;;;15.63;72.23;100933.34;4925081;28;48020;-77
2023/01/02 02:06:52;;;;;;;;;2.25;1.25;;;;;15.53;72.15;100924.88;4945390;28;45519;-77
2023/01/02 02:09:50;;;;;;;;;2.00;2.00;;;;;15.63;72.25;100957.56;4947745;28;45299;-77
2023/01/02 02:12:16;;;;;;;;;4.00;1.50;;;;;15.58;72.42;100955.09;4928197;28;45679;-78
2023/01/02 02:14:42;;;;;;;;;2.00;2.00;;;;;15.46;72.76;100936.91;4914218;28;46166;-77
2023/01/02 02:17:26;;;;;;;;;3.00;3.00;;;;;15.59;72.43;100959.56;4944132;28;45344;-77
2023/01/02 02:20:00;;;;;;;;;2.00;2.00;;;;;15.57;72.34;100969.53;4944994;28;45255;-78
2023/01/02 02:23:00;;;;;;;;;3.00;2.00;;;;;15.58;72.71;100971.25;4946433;28;45258;-78
2023/01/02 02:25:47;;;;;;;;;2.00;2.00;;;;;15.56;72.85;100981.22;4939549;28;46540;-77
2023/01/02 02:28:38;;;;;;;;;3.00;2.00;;;;;15.53;72.96;100976.84;4946697;28;45108;-77
2023/01/02 02:31:17;;;;;;;;;2.25;2.00;;;;;15.51;72.87;100962.59;4934952;28;45248;-77
2023/01/02 02:33:51;;;;;;;;;1.00;1.00;;;;;15.43;73.29;100954.03;4924725;28;45449;-77
2023/01/02 02:36:46;;;;;;;;;4.75;2.00;;;;;15.52;73.16;100964.38;4939150;28;45377;-77
2023/01/02 02:39:29;;;;;;;;;2.00;1.00;;;;;15.52;73.23;100976.94;4918370;28;45402;-77
2023/01/02 02:42:33;;;;;;;;;1.25;1.25;;;;;15.49;73.23;100971.72;4940708;28;45392;-77
2023/01/02 02:45:22;;;;;;;;;2.00;2.00;;;;;15.43;73.41;100961.25;4935105;28;45367;-77
2023/01/02 02:47:57;;;;;;;;;2.00;1.00;;;;;15.49;73.75;100972.56;4929458;28;47375;-78
2023/01/02 02:50:38;;;;;;;;;2.00;1.00;;;;;15.46;73.75;100967.34;4940533;28;45695;-78
2023/01/02 02:53:13;;;;;;;;;3.00;2.00;;;;;15.40;73.79;100954.19;4928874;28;45267;-77
2023/01/02 02:55:43;;;;;;;;;2.75;2.50;;;;;15.39;74.05;100944.41;4935293;28;45227;-77
2023/01/02 02:58:12;;;;;;;;;3.00;2.00;;;;;15.50;73.73;100957.31;4940548;28;45382;-77
2023/01/02 03:00:37;;;;;;;;;1.25;1.25;;;;;15.46;73.81;100961.09;4945136;28;45215;-77
2023/01/02 03:03:16;;;;;;;;;1.00;1.00;;;;;15.48;74.09;100969.97;4931182;28;45556;-77
2023/01/02 03:06:05;;;;;;;;;2.25;1.00;;;;;15.46;73.98;100971.88;4945669;28;45470;-78
2023/01/02 03:08:49;;;;;;;;;1.75;1.75;;;;;15.48;74.18;100976.19;4944472;28;45489;-78
2023/01/02 03:11:15;;;;;;;;;4.50;1.00;;;;;15.45;74.24;100975.50;4942564;28;45426;-77
2023/01/02 03:14:00;;;;;;;;;4.00;1.25;;;;;15.50;74.18;100982.41;4946053;28;45225;-77
2023/01/02 03:16:38;;;;;;;;;1.00;1.00;;;;;15.49;74.28;100977.09;4928758;28;45297;-77
2023/01/02 03:19:13;;;;;;;;;2.00;1.25;;;;;15.46;74.06;100970.03;4944218;28;46150;-77
2023/01/02 03:21:45;;;;;;;;;2.00;1.00;;;;;15.47;74.27;100974.47;4935163;28;45896;-77
2023/01/02 03:24:15;;;;;;;;;0.00;0.00;;;;;15.45;74.24;100978.19;4931011;28;45296;-77
2023/01/02 03:26:44;;;;;;;;;3.00;1.00;;;;;15.41;74.44;100973.91;4932716;28;45290;-77
2023/01/02 03:29:15;;;;;;;;;1.00;0.00;;;;;15.26;74.22;100965.63;4944863;28;45396;-77
2023/01/02 03:31:46;;;;;;;;;1.50;0.00;;;;;15.29;74.25;100972.69;4934908;28;45477;-77
2023/01/02 03:34:20;;;;;;;;;1.25;0.00;;;;;15.33;74.24;100987.72;4945911;28;45537;-77
2023/01/02 03:36:52;;;;;;;;;2.75;0.00;;;;;15.30;74.36;100990.56;4945817;28;45445;-77
2023/01/02 03:39:21;;;;;;;;;0.00;0.00;;;;;15.29;73.91;100991.53;4943077;28;45575;-77
2023/01/02 03:41:54;;;;;;;;;0.75;0.75;;;;;15.27;73.85;100998.75;4947307;28;45394;-77
2023/01/02 03:44:23;;;;;;;;;0.00;0.00;;;;;15.23;73.68;100992.66;4930028;28;45379;-77
2023/01/02 03:47:07;;;;;;;;;0.75;0.00;;;;;15.25;73.60;101003.34;4944236;28;45307;-77
2023/01/02 03:49:38;;;;;;;;;2.00;0.00;;;;;15.25;73.70;101016.78;4933001;28;45538;-77
2023/01/02 03:52:04;;;;;;;;;0.00;0.00;;;;;15.26;73.54;101019.41;4941886;28;45314;-77
2023/01/02 03:54:30;;;;;;;;;0.00;0.00;;;;;15.25;73.28;101022.19;4945406;28;45370;-77
2023/01/02 03:57:07;;;;;;;;;0.00;0.00;;;;;15.28;73.32;101030.09;4943902;28;45595;-77
2023/01/02 03:59:47;;;;;;;;;0.00;0.00;;;;;15.17;73.46;101018.03;4941525;28;45497;-77
2023/01/02 04:02:31;;;;;;;;;0.00;0.00;;;;;15.21;73.51;101026.84;4949095;28;45373;-77
2023/01/02 04:05:34;;;;;;;;;0.00;0.00;;;;;15.21;73.47;101026.84;4927783;28;45430;-77
2023/01/02 04:08:36;;;;;;;;;0.00;0.00;;;;;15.21;73.27;101034.03;4939833;28;45631;-77
2023/01/02 04:11:04;;;;;;;;;0.00;0.00;;;;;15.19;73.37;101029.59;4919455;28;45313;-77
2023/01/02 04:13:40;;;;;;;;;0.50;0.00;;;;;15.11;72.99;101017.47;4944371;28;45264;-77
2023/01/02 04:16:14;;;;;;;;;0.00;0.00;;;;;15.14;73.33;101023.56;4940586;28;45355;-77
2023/01/02 04:18:46;;;;;;;;;0.00;0.00;;;;;15.12;73.09;101028.16;4943518;28;45287;-77
2023/01/02 04:21:18;;;;;;;;;0.00;0.00;;;;;15.07;73.00;101022.09;4944401;28;45422;-77
2023/01/02 04:23:53;;;;;;;;;0.00;0.00;;;;;15.09;73.00;101032.78;4929856;28;45391;-77
2023/01/02 04:26:35;;;;;;;;;0.00;0.00;;;;;15.10;73.31;101039.91;4926769;28;45323;-77
2023/01/02 04:29:01;;;;;;;;;1.00;0.00;;;;;14.96;73.43;101025.28;4935536;28;45426;-77
2023/01/02 04:31:31;;;;;;;;;0.00;0.00;;;;;15.05;73.19;101041.94;4934971;28;45486;-77
2023/01/02 04:34:01;;;;;;;;;0.00;0.00;;;;;15.04;73.10;101040.22;4923641;28;45924;-77
2023/01/02 04:36:26;;;;;;;;;0.00;0.00;;;;;15.08;73.00;101055.25;4911280;28;45346;-77
2023/01/02 04:38:52;;;;;;;;;0.00;0.00;;;;;15.05;73.19;101055.38;4917072;28;45352;-77
2023/01/02 04:41:25;;;;;;;;;0.75;0.00;;;;;15.05;73.42;101052.69;4944474;28;45267;-77
2023/01/02 04:43:55;;;;;;;;;0.00;0.00;;;;;15.02;73.43;101061.78;4944838;28;45812;-77
2023/01/02 04:46:21;;;;;;;;;0.00;0.00;;;;;15.03;73.57;101062.66;4944309;28;45315;-77
2023/01/02 04:48:46;;;;;;;;;1.00;0.00;;;;;15.03;73.46;101078.78;4942667;28;45720;-77
2023/01/02 04:51:11;;;;;;;;;0.00;0.00;;;;;15.01;73.80;101078.84;4945133;28;46052;-77
2023/01/02 04:53:37;;;;;;;;;0.00;0.00;;;;;15.02;73.50;101075.22;4942006;28;46812;-77
2023/01/02 04:56:02;;;;;;;;;0.00;0.00;;;;;14.97;73.76;101075.41;4944132;28;45435;-77
2023/01/02 04:58:28;;;;;;;;;1.00;1.00;;;;;14.94;73.56;101072.88;4938777;28;45511;-77
2023/01/02 05:00:53;;;;;;;;;2.00;1.00;;;;;14.87;73.86;101075.88;4944175;28;45397;-77
2023/01/02 05:03:19;;;;;;;;;0.00;0.00;;;;;14.94;73.38;101089.00;4930423;28;45342;-77
2023/01/02 05:05:44;;;;;;;;;0.00;0.00;;;;;15.01;73.92;101100.34;4944750;28;45236;-77
2023/01/02 05:08:10;;;;;;;;;0.00;0.00;;;;;14.95;73.69;101092.56;4942555;28;45419;-77
2023/01/02 05:10:35;;;;;;;;;0.00;0.00;;;;;14.97;73.93;101106.81;4946321;28;45322;-77
2023/01/02 05:13:00;;;;;;;;;0.00;0.00;;;;;14.94;73.95;101113.19;4944638;28;45760;-77
2023/01/02 05:15:27;;;;;;;;;0.00;0.00;;;;;14.91;73.82;101109.78;4936027;28;45254;-77
2023/01/02 05:17:52;;;;;;;;;0.00;0.00;;;;;14.88;73.97;101116.13;4944037;28;45333;-77
2023/01/02 05:20:18;;;;;;;;;0.00;0.00;;;;;14.92;73.88;101128.53;4943912;28;46267;-77
2023/01/02 05:25:31;;;;;;;;;0.00;0.00;;;;;14.91;73.82;101132.13;4937155;28;45405;-77
2023/01/02 05:27:56;;;;;;;;;0.00;0.00;;;;;14.82;73.82;101121.81;4946705;28;45390;-77
2023/01/02 05:30:22;;;;;;;;;0.00;0.00;;;;;14.89;73.79;101142.09;4931700;28;45501;-77
2023/01/02 05:32:48;;;;;;;;;0.00;0.00;;;;;14.86;73.48;101141.34;4942081;28;45393;-77
2023/01/02 05:35:14;;;;;;;;;0.00;0.00;;;;;14.87;73.62;101143.97;4938630;28;45370;-77
2023/01/02 05:37:39;;;;;;;;;0.00;0.00;;;;;14.78;73.73;101130.94;4947308;28;45225;-77
2023/01/02 05:40:05;;;;;;;;;0.00;0.00;;;;;14.86;73.69;101161.03;4946036;28;46876;-77
2023/01/02 05:42:30;;;;;;;;;0.00;0.00;;;;;14.85;73.77;101170.06;4946777;28;45334;-77
2023/01/02 05:44:56;;;;;;;;;0.75;0.00;;;;;14.80;73.65;101166.66;4944292;28;45369;-77
2023/01/02 05:47:21;;;;;;;;;0.00;0.00;;;;;14.80;73.81;101175.63;4946727;28;45338;-77
2023/01/02 05:49:47;;;;;;;;;0.00;0.00;;;;;14.81;73.85;101184.56;4946075;28;45539;-77
2023/01/02 05:52:12;;;;;;;;;0.00;0.00;;;;;14.73;73.48;101173.25;4949963;28;45417;-77
2023/01/02 05:54:37;;;;;;;;;0.00;0.00;;;;;14.77;73.82;101178.44;4948385;28;45315;-77
2023/01/02 05:57:02;;;;;;;;;0.00;0.00;;;;;14.77;73.79;101182.94;4947441;28;44765;-77
2023/01/02 05:59:28;;;;;;;;;0.00;0.00;;;;;14.77;73.81;101189.19;4945680;28;46133;-77
2023/01/02 06:01:53;;;;;;;;;0.00;0.00;;;;;14.79;73.97;101181.06;4947180;28;45327;-77
2023/01/02 06:04:18;;;;;;;;;0.00;0.00;;;;;14.77;74.03;101178.44;4946635;28;45688;-77
2023/01/02 06:06:44;;;;;;;;;0.00;0.00;;;;;14.73;74.08;101182.19;4928772;28;45503;-77
2023/01/02 06:09:13;;;;;;;;;0.00;0.00;;;;;14.75;73.64;101188.38;4945570;28;46064;-77
2023/01/02 06:11:39;;;;;;;;;0.00;0.00;;;;;14.73;73.83;101192.06;4946344;28;45262;-77
2023/01/02 06:14:05;;;;;;;;;0.00;0.00;;;;;14.70;74.02;101190.41;4947055;28;45286;-77
2023/01/02 06:16:30;;;;;;;;;0.00;0.00;;;;;14.69;74.21;101195.84;4945398;28;45310;-77
2023/01/02 06:18:56;;;;;;;;;1.00;0.00;;;;;14.68;74.31;101202.13;4944569;28;46185;-77
2023/01/02 06:21:21;;;;;;;;;0.00;0.00;;;;;14.62;74.06;101196.09;4945505;28;45337;-77
2023/01/02 06:23:52;;;;;;;;;0.00;0.00;;;;;14.68;73.97;101218.25;4945070;28;46390;-77
2023/01/02 06:26:18;;;;;;;;;0.00;0.00;;;;;14.64;73.79;101225.56;4940222;28;45385;-77
2023/01/02 06:28:47;;;;;;;;;0.00;0.00;;;;;14.62;73.88;101211.34;4945579;28;45627;-77
2023/01/02 06:31:15;;;;;;;;;1.00;0.00;;;;;14.60;74.19;101223.94;4938105;28;45520;-77
2023/01/02 06:33:41;;;;;;;;;0.00;0.00;;;;;14.57;74.04;101221.38;4929284;28;45531;-77
2023/01/02 06:36:15;;;;;;;;;0.50;0.00;;;;;14.56;74.24;101223.16;4943051;28;45381;-77
2023/01/02 06:38:41;;;;;;;;;0.00;0.00;;;;;14.52;74.33;101226.06;4944043;28;45289;-77
2023/01/02 06:41:08;;;;;;;;;0.00;0.00;;;;;14.45;74.13;101212.88;4945654;28;45645;-77
2023/01/02 06:43:35;;;;;;;;;0.75;0.00;;;;;14.53;74.25;101247.47;4942179;28;45265;-77
2023/01/02 06:46:03;;;;;;;;;0.00;0.00;;;;;14.53;74.21;101246.59;4937928;28;45361;-77
2023/01/02 06:48:31;;;;;;;;;0.00;0.00;;;;;14.50;74.33;101244.94;4943311;28;47077;-77
2023/01/02 06:50:58;;;;;;;;;0.00;0.00;;;;;14.48;74.18;101249.47;4943819;28;45512;-77
2023/01/02 06:53:24;;;;;;;;;0.00;0.00;;;;;14.46;74.30;101241.47;4942474;28;45469;-77
2023/01/02 06:55:57;;;;;;;;;0.00;0.00;;;;;14.44;74.02;101246.03;4946747;28;45338;-77
2023/01/02 06:58:24;;;;;;;;;0.00;0.00;;;;;14.41;74.38;101245.28;4945285;28;45285;-77
2023/01/02 07:00:50;;;;;;;;;0.00;0.00;;;;;14.39;74.27;101237.28;4943790;28;45195;-77
2023/01/02 07:03:15;;;;;;;;;0.00;0.00;;;;;14.39;74.44;101226.53;4934468;28;45415;-77
2023/01/02 07:05:41;;;;;;;;;0.00;0.00;;;;;14.39;74.40;101221.19;4946966;28;45401;-77
2023/01/02 07:08:07;;;;;;;;;0.00;0.00;;;;;14.37;74.15;101222.19;4946113;28;46225;-76
2023/01/02 07:10:32;;;;;;;;;0.00;0.00;;;;;14.41;74.58;101224.66;4945459;28;45249;-77
2023/01/02 07:12:58;;;;;;;;;0.00;0.00;;;;;14.38;73.92;101230.19;4946666;28;45416;-77
2023/01/02 07:15:23;;;;;;;;;0.00;0.00;;;;;14.31;74.20;101220.59;4927570;28;45330;-78
2023/01/02 07:17:48;;;;;;;;;0.00;0.00;;;;;14.38;74.36;101240.94;4944091;28;45322;-78
2023/01/02 07:20:14;;;;;;;;;0.00;0.00;;;;;14.08;74.36;101194.69;4961565;28;45422;-78
2023/01/02 07:22:39;;;;;;;;;0.00;0.00;;;;;14.34;74.13;101241.09;4967884;28;45766;-78
2023/01/02 07:25:05;;;;;;;;;0.00;0.00;;;;;14.40;74.21;101252.47;4964685;28;45280;-78
2023/01/02 07:27:31;;;;;;;;;0.00;0.00;;;;;14.40;74.17;101259.63;4964117;28;45518;-78
2023/01/02 07:29:56;;;;;;;;;0.00;0.00;;;;;14.36;74.08;101258.03;4960257;28;45424;-78
2023/01/02 07:32:22;;;;;;;;;0.00;0.00;;;;;14.36;74.02;101260.72;4963328;28;45327;-79
2023/01/02 07:34:48;;;;;;;;;0.00;0.00;;;;;14.34;74.10;101260.78;4965100;28;45300;-79
2023/01/02 07:37:13;;;;;;;;;0.00;0.00;;;;;14.35;74.10;101261.63;4965167;28;45203;-79
2023/01/02 07:39:39;;;;;;;;;0.00;0.00;;;;;14.33;73.98;101258.16;4963916;28;45538;-79
2023/01/02 07:42:04;;;;;;;;;0.00;0.00;;;;;14.33;73.96;101268.88;4964883;28;45261;-78
2023/01/02 07:44:29;;;;;;;;;0.75;0.75;;;;;14.32;73.96;101270.72;4947768;28;45206;-78
2023/01/02 07:46:55;;;;;;;;;1.00;0.75;;;;;14.33;73.81;101275.13;4965913;28;46198;-79
2023/01/02 07:49:20;;;;;;;;;0.00;0.00;;;;;14.30;74.31;101275.28;4964414;28;45386;-79
2023/01/02 07:51:45;;;;;;;;;0.00;0.00;;;;;14.24;73.98;101270.13;4964498;28;45308;-79
2023/01/02 07:54:10;;;;;;;;;0.00;0.00;;;;;14.33;74.07;101291.22;4964137;28;45507;-78
2023/01/02 07:56:36;;;;;;;;;0.00;0.00;;;;;14.26;74.07;101295.97;4963076;28;46397;-80
2023/01/02 07:59:01;;;;;;;;;1.50;0.00;;;;;14.25;74.21;101291.56;4955788;28;45418;-79
2023/01/02 08:01:27;;;;;;;;;0.00;0.00;;;;;14.25;73.76;101301.44;4958244;28;45455;-79
2023/01/02 08:03:52;;;;;;;;;0.00;0.00;;;;;14.27;74.11;101316.53;4952193;28;45501;-79
2023/01/02 08:06:18;;;;;;;;;0.75;0.00;;;;;14.26;74.05;101324.66;4965686;28;45412;-80
2023/01/02 08:08:43;;;;;;;;;0.00;0.00;;;;;14.29;74.14;101329.03;4961053;28;45511;-78
2023/01/02 08:11:18;;;;;;;;;1.00;0.00;;;;;14.26;73.90;101328.19;4957070;28;46110;-77
2023/01/02 08:13:43;;;;;;;;;0.00;0.00;;;;;14.28;74.12;101341.56;4946483;28;45408;-77
2023/01/02 08:16:11;;;;;;;;;0.50;0.00;;;;;14.29;73.98;101346.00;4963275;28;45705;-78
2023/01/02 08:18:37;;;;;;;;;0.00;0.00;;;;;14.25;73.70;101337.22;4961344;28;45561;-78
2023/01/02 08:21:03;;;;;;;;;0.00;0.00;;;;;14.26;73.80;101343.44;4959297;28;45465;-79
2023/01/02 08:23:28;;;;;;;;;0.00;0.00;;;;;14.25;73.87;101336.34;4958953;28;45383;-78
2023/01/02 08:25:57;;;;;;;;;1.00;1.00;;;;;14.23;73.91;101343.56;4960672;28;46564;-79
2023/01/02 08:28:23;;;;;;;;;0.25;0.25;;;;;14.19;73.82;101342.78;4961578;28;45265;-80
2023/01/02 08:30:48;;;;;;;;;0.00;0.00;;;;;14.19;74.00;101356.22;4957637;28;45747;-79
2023/01/02 08:33:14;;;;;;;;;0.00;0.00;;;;;14.15;73.91;101349.22;4961720;28;45547;-80
2023/01/02 08:35:39;;;;;;;;;1.25;0.00;;;;;14.19;73.69;101352.69;4953408;28;45625;-79
2023/01/02 08:38:04;;;;;;;;;0.00;0.00;;;;;14.20;74.09;101363.34;4959863;28;45460;-81
2023/01/02 08:40:30;;;;;;;;;0.00;0.00;;;;;14.18;73.68;101367.03;4948521;28;45037;-81
2023/01/02 08:42:55;;;;;;;;;1.00;0.00;;;;;14.15;73.63;101367.13;4945059;28;45473;-80
2023/01/02 08:45:20;;;;;;;;;0.00;0.00;;;;;14.15;73.96;101381.44;4961792;28;45282;-79
2023/01/02 08:47:46;;;;;;;;;0.00;0.00;;;;;14.12;73.89;101383.38;4946716;28;45782;-80
2023/01/02 08:50:12;;;;;;;;;0.00;0.00;;;;;14.10;73.41;101396.84;4946232;28;45298;-80
2023/01/02 08:52:37;;;;;;;;;0.00;0.00;;;;;14.11;73.78;101411.16;4958622;28;45532;-80
2023/01/02 08:55:04;;;;;;;;;0.00;0.00;;;;;13.99;73.49;101407.09;4960828;28;46851;-79
2023/01/02 08:57:30;;;;;;;;;0.00;0.00;;;;;14.04;73.75;101421.22;4964033;28;45439;-80
2023/01/02 08:59:55;;;;;;;;;1.00;0.00;;;;;14.12;73.43;101447.81;4969278;28;45633;-78
2023/01/02 09:02:20;;;;;;;;;0.00;0.00;;;;;14.16;73.09;101471.78;4966584;28;45870;-79
2023/01/02 09:04:46;;;;;;;;;0.00;0.00;;;;;14.06;73.17;101470.38;4966670;28;45637;-79
2023/01/02 09:07:11;;;;;;;;;0.00;0.00;;;;;14.11;73.30;101483.63;4965763;28;45447;-79
2023/01/02 09:09:36;;;;;;;;;0.00;0.00;;;;;14.02;73.50;101474.09;4963218;28;45399;-78
2023/01/02 09:12:02;;;;;;;;;0.00;0.00;;;;;14.00;72.96;101470.56;4964115;28;45451;-79
2023/01/02 09:14:28;;;;;;;;;0.00;0.00;;;;;14.15;73.47;101490.63;4956948;28;47017;-78
2023/01/02 09:16:53;;;;;;;;;0.00;0.00;;;;;14.06;72.86;101487.34;4966320;28;45325;-76
2023/01/02 09:19:18;;;;;;;;;1.00;0.00;;;;;14.11;73.16;101489.00;4967572;28;45439;-77
2023/01/02 09:21:44;;;;;;;;;0.00;0.00;;;;;14.05;73.25;101468.63;4950809;28;45689;-77
2023/01/02 09:24:09;;;;;;;;;0.00;0.00;;;;;14.06;73.29;101460.50;4948454;28;45462;-77
2023/01/02 09:26:36;;;;;;;;;0.00;0.00;;;;;14.03;73.18;101471.38;4942951;28;45589;-76
2023/01/02 09:29:03;;;;;;;;;0.00;0.00;;;;;14.06;73.29;101484.66;4939048;28;45590;-79
2023/01/02 09:31:29;;;;;;;;;0.00;0.00;;;;;14.05;73.30;101498.16;4935534;28;45470;-79
2023/01/02 09:33:54;;;;;;;;;0.00;0.00;;;;;14.03;73.21;101500.91;4939921;28;45388;-81
2023/01/02 09:36:20;;;;;;;;;0.00;0.00;;;;;14.06;73.57;101505.25;4934800;28;45432;-82
2023/01/02 09:38:53;;;;;;;;;0.00;0.00;;;;;13.96;73.13;101502.00;4934143;28;45759;-82
2023/01/02 09:41:26;;;;;;;;;1.00;1.00;;;;;14.07;73.12;101518.63;4943115;28;45433;-84
2023/01/02 09:43:56;;;;;;;;;0.00;0.00;;;;;14.09;73.29;101513.22;4942335;28;45891;-82
2023/01/02 09:46:59;;;;;;;;;0.00;0.00;;;;;14.12;73.10;101517.63;4942670;28;45312;-82
2023/01/02 09:49:31;;;;;;;;;0.00;0.00;;;;;14.09;73.03;101518.59;4921607;28;45506;-82
2023/01/02 09:51:57;;;;;;;;;0.25;0.25;;;;;14.03;73.46;101521.47;4946449;28;45447;-82
2023/01/02 09:54:26;;;;;;;;;1.25;0.00;;;;;14.05;73.80;101551.84;4946230;28;45396;-82
2023/01/02 09:57:11;;;;;;;;;0.00;0.00;;;;;13.95;73.37;101553.97;4926701;28;45699;-82
2023/01/02 09:59:48;;;;;;;;;0.75;0.75;;;;;14.01;74.04;101563.59;4941428;28;45519;-80
2023/01/02 10:02:32;;;;;;;;;0.50;0.50;;;;;14.05;73.65;101576.88;4945494;28;45542;-78
2023/01/02 10:05:09;;;;;;;;;0.00;0.00;;;;;14.05;73.37;101579.56;4942236;28;45642;-81
2023/01/02 10:07:54;;;;;;;;;0.00;0.00;;;;;13.97;73.51;101568.19;4938246;28;45623;-80
2023/01/02 10:10:30;;;;;;;;;0.00;0.00;;;;;14.01;73.56;101575.22;4941425;28;45211;-79
2023/01/02 10:13:19;;;;;;;;;1.75;0.75;;;;;14.02;73.70;101581.47;4926274;28;45437;-79
2023/01/02 10:15:47;;;;;;;;;1.00;1.00;;;;;14.00;74.01;101581.53;4903882;28;45915;-79
2023/01/02 10:18:21;;;;;;;;;0.75;0.75;;;;;13.98;73.66;101567.28;4949177;28;45226;-78
2023/01/02 10:20:53;;;;;;;;;0.00;0.00;;;;;13.92;73.86;101562.09;4943371;28;45317;-78
2023/01/02 10:23:29;;;;;;;;;0.25;0.25;;;;;13.74;74.16;101528.69;4945260;28;45497;-78
2023/01/02 10:26:05;;;;;;;;;0.00;0.00;;;;;13.85;74.08;101528.38;4942720;28;47214;-80
2023/01/02 10:28:54;;;;;;;;;0.00;0.00;;;;;13.86;74.27;101536.34;4950782;28;45329;-77
2023/01/02 10:31:28;;;;;;;;;2.25;1.00;;;;;13.89;74.53;101540.75;4939881;28;45527;-78
2023/01/02 10:33:58;;;;;;;;;3.50;3.00;;;;;13.90;74.73;101543.38;4944960;28;45347;-78
2023/01/02 10:36:41;;;;;;;;;2.00;2.00;;;;;13.90;74.75;101556.78;4941429;28;45451;-76
2023/01/02 10:39:12;;;;;;;;;1.25;1.25;;;;;13.92;74.80;101571.97;4930174;28;45848;-77
2023/01/02 10:41:39;;;;;;;;;0.25;0.25;;;;;13.93;74.69;101566.53;4940979;28;45354;-76
2023/01/02 10:44:11;;;;;;;;;0.25;0.00;;;;;13.94;74.75;101573.66;4934885;28;45406;-76
2023/01/02 10:46:40;;;;;;;;;0.00;0.00;;;;;13.94;74.76;101570.97;4936054;28;45573;-78
2023/01/02 10:49:10;;;;;;;;;1.00;1.00;;;;;13.94;74.70;101583.53;4939009;28;45302;-77
2023/01/02 10:51:41;;;;;;;;;3.00;3.00;;;;;13.97;74.54;101604.91;4941637;28;45294;-78
2023/01/02 10:54:08;;;;;;;;;1.00;1.00;;;;;13.99;74.37;101606.59;4937124;28;45402;-77
2023/01/02 10:56:36;;;;;;;;;0.50;0.50;;;;;13.95;74.36;101613.00;4935676;28;48473;-77
2023/01/02 10:59:03;;;;;;;;;0.00;0.00;;;;;13.99;74.41;101621.84;4949591;28;45753;-77
2023/01/02 11:01:29;;;;;;;;;0.25;0.25;;;;;13.96;74.64;101622.78;4943784;28;45404;-77
2023/01/02 11:03:54;;;;;;;;;0.00;0.00;;;;;13.98;74.23;101620.06;4941325;28;45465;-77
2023/01/02 11:06:24;;;;;;;;;2.00;2.00;;;;;13.97;74.23;101612.97;4936265;28;46765;-76
2023/01/02 11:09:01;;;;;;;;;1.00;1.00;;;;;13.94;74.19;101611.25;4938087;28;45617;-78
2023/01/02 11:11:28;;;;;;;;;1.00;1.00;;;;;13.92;74.30;101610.41;4939716;28;45349;-77
2023/01/02 11:13:55;;;;;;;;;0.00;0.00;;;;;13.93;74.50;101622.03;4941801;28;45428;-77
2023/01/02 11:16:23;;;;;;;;;1.00;1.00;;;;;13.94;74.47;101623.78;4938628;28;46747;-77
2023/01/02 11:18:51;;;;;;;;;1.25;1.25;;;;;13.94;74.75;101637.22;4940621;28;45348;-77
2023/01/02 11:21:23;;;;;;;;;1.75;1.75;;;;;13.79;74.53;101607.25;4920221;28;45402;-77
2023/01/02 11:23:49;;;;;;;;;1.25;1.25;;;;;13.98;74.45;101638.84;4939088;28;45476;-77
2023/01/02 11:26:23;;;;;;;;;1.00;1.00;;;;;13.89;73.77;101616.75;4940866;28;45313;-77
2023/01/02 11:28:50;;;;;;;;;1.00;1.00;;;;;14.00;74.10;101624.47;4951855;28;45464;-77
2023/01/02 11:31:17;;;;;;;;;0.25;0.25;;;;;13.97;74.34;101616.50;4933371;28;45215;-77
2023/01/02 11:33:43;;;;;;;;;2.00;0.25;;;;;14.03;74.31;101620.78;4928470;28;45393;-77
2023/01/02 11:36:11;;;;;;;;;1.00;1.00;;;;;14.05;74.35;101629.69;4939682;28;46457;-77
2023/01/02 11:38:55;;;;;;;;;2.75;2.75;;;;;14.03;74.09;101628.84;4923408;28;45262;-77